Strona główna
METAR-TAF:

METAR-TAF

Lotnisko :

Berlin, New Hampshire, Stany Zjednoczone

Szerokość geograficzna: 44-34-34N, Długość geograficzna: 071-10-43W, wysokość: 353 m

Aktualna obserwacja pogody

Raport powstał 40 minut temu, godzina 07:52 UTC
Wiatr 3 kt od zachodnio-północny zachód
Temperatura 4°C
Wilgotność 75%
Ciśnienie 1011 hPa
Widzialność: 16.1 km
Przerywane chmury na wysokości 3300 ft
Zachmurzenie całkowite na wysokości 5500 ft

METAR: KBML 250752Z AUTO 30003KT 10SM BKN033 OVC055 04/00 A2986 RMK AO2 SLP122 T00440000

czas: 04:32 (08:32 UTC)


TAF: brakujący

Obserwacja i prognoza pogody dla ponad 4000 lotnisk (raport METAR i TAF).

Dostępne stacje oznaczono żółtymi i czerwonymi punktami na mapie.

Najedź kursorem aby zobaczyć nazwę stacji.

Kliknij aby zobaczyć obserwacje i prognozy pogody.

Aby zmienić mapę: kliknij na zielony przycisk z czarnym krzyżykiem, aby powiększyć; na zielony przycisk z myślnikiem, aby pomniejszyć; na zielone strzałki, aby przejść do map sąsiednich.


METAR-TAF: